Time;durP1;ratioP1;P1;durP2;ratioP2;P2;SDS_P1;SDS_P2;PMS_P1;PMS_P2;Temp;Humidity;BMP_temperature;BMP_pressure;BME280_temperature;BME280_humidity;BME280_pressure;Samples;Min_cycle;Max_cycle;Signal;HPM_P1;HPM_P2
2022/11/23 00:00:09;;;;;;;72.57;28.80;;;-0.30;99.90;;;;;;4410959;28;661852;-63
2022/11/23 00:02:56;;;;;;;101.07;36.00;;;-0.30;99.90;;;;;;4391997;28;660566;-64
2022/11/23 00:05:43;;;;;;;69.23;28.03;;;-0.40;99.90;;;;;;4409912;28;661913;-63
2022/11/23 00:08:30;;;;;;;72.17;28.57;;;-0.40;99.90;;;;;;4391929;28;660844;-64
2022/11/23 00:11:19;;;;;;;66.17;26.93;;;-0.40;99.90;;;;;;4414850;28;662525;-63
2022/11/23 00:14:06;;;;;;;56.90;24.02;;;-0.50;99.90;;;;;;4386001;28;661095;-62
2022/11/23 00:16:53;;;;;;;55.40;23.60;;;-0.50;99.90;;;;;;4410860;28;661857;-62
2022/11/23 00:19:40;;;;;;;59.70;23.53;;;-0.50;99.90;;;;;;4392006;28;660818;-63
2022/11/23 00:22:27;;;;;;;55.83;23.63;;;-0.50;99.90;;;;;;4411060;28;661730;-63
2022/11/23 00:25:15;;;;;;;53.57;22.27;;;-0.50;99.90;;;;;;4414867;28;660198;-63
2022/11/23 00:28:03;;;;;;;50.40;21.53;;;-0.50;99.90;;;;;;4387843;28;662463;-63
2022/11/23 00:30:50;;;;;;;51.80;21.87;;;-0.50;99.90;;;;;;4391804;28;660733;-64
2022/11/23 00:33:37;;;;;;;55.60;20.77;;;-0.50;99.90;;;;;;4410444;28;661912;-63
2022/11/23 00:36:26;;;;;;;47.93;20.67;;;-0.50;99.90;;;;;;4406218;28;660884;-65
2022/11/23 00:39:13;;;;;;;49.50;20.63;;;-0.50;99.90;;;;;;4412507;28;662015;-63
2022/11/23 00:42:00;;;;;;;48.72;20.90;;;-0.50;99.90;;;;;;4396643;28;660524;-64
2022/11/23 00:44:49;;;;;;;47.25;20.33;;;-0.50;99.90;;;;;;4414550;28;661888;-62
2022/11/23 00:47:36;;;;;;;47.77;20.73;;;-0.50;99.90;;;;;;4391528;28;660970;-63
2022/11/23 00:50:23;;;;;;;61.30;28.30;;;-0.40;99.90;;;;;;4414626;28;661675;-62
2022/11/23 00:53:10;;;;;;;115.47;28.00;;;-0.50;99.90;;;;;;4399959;28;660391;-64
2022/11/23 00:55:57;;;;;;;52.27;22.63;;;-0.50;99.90;;;;;;4413517;28;662743;-64
2022/11/23 00:58:48;;;;;;;52.60;22.93;;;-0.50;99.90;;;;;;4410345;28;661568;-63
2022/11/23 01:01:36;;;;;;;56.37;24.50;;;-0.50;99.90;;;;;;4709536;28;660584;-63
2022/11/23 01:04:23;;;;;;;55.50;25.07;;;-0.50;99.90;;;;;;4540993;28;537817;-62
2022/11/23 01:07:10;;;;;;;59.90;25.10;;;-0.50;99.90;;;;;;4391355;28;660745;-63
2022/11/23 01:09:58;;;;;;;82.10;31.13;;;-0.50;99.90;;;;;;4410616;28;660689;-62
2022/11/23 01:12:45;;;;;;;72.37;28.63;;;-0.50;99.90;;;;;;4401696;28;660695;-64
2022/11/23 01:15:32;;;;;;;80.47;28.75;;;-0.50;99.90;;;;;;4414314;28;660707;-62
2022/11/23 01:18:21;;;;;;;74.23;28.10;;;-0.50;99.90;;;;;;4410326;28;660630;-63
2022/11/23 01:21:08;;;;;;;95.53;30.17;;;-0.50;99.90;;;;;;4382019;28;661441;-63
2022/11/23 01:23:55;;;;;;;78.47;28.10;;;-0.50;99.90;;;;;;4396216;28;660604;-64
2022/11/23 01:26:42;;;;;;;87.07;32.20;;;-0.60;99.90;;;;;;4415699;28;662292;-62
2022/11/23 01:29:30;;;;;;;80.97;30.60;;;-0.60;99.90;;;;;;4412690;28;661128;-64
2022/11/23 01:32:17;;;;;;;79.33;30.37;;;-0.60;99.90;;;;;;4417420;28;662513;-62
2022/11/23 01:35:06;;;;;;;83.70;31.83;;;-0.60;99.90;;;;;;4413310;28;661222;-62
2022/11/23 01:37:53;;;;;;;87.17;32.20;;;-0.60;99.90;;;;;;4389766;28;660908;-63
2022/11/23 01:40:41;;;;;;;86.13;35.03;;;-0.50;99.90;;;;;;4394345;28;660744;-62
2022/11/23 01:43:28;;;;;;;85.67;31.30;;;-0.50;99.90;;;;;;4413022;28;662693;-63
2022/11/23 01:46:15;;;;;;;94.53;35.53;;;-0.50;99.90;;;;;;4394297;28;661689;-65
2022/11/23 01:49:03;;;;;;;99.90;37.27;;;-0.50;99.90;;;;;;4417510;28;662490;-63
2022/11/23 01:51:53;;;;;;;89.73;34.70;;;-0.50;99.90;;;;;;4393977;28;660614;-63
2022/11/23 01:54:42;;;;;;;64.95;26.42;;;-0.40;99.90;;;;;;4394032;28;660596;-64
2022/11/23 01:57:30;;;;;;;75.13;29.27;;;-0.40;99.90;;;;;;4407283;28;660876;-62
2022/11/23 02:00:18;;;;;;;68.07;28.53;;;-0.40;99.90;;;;;;4385207;28;662209;-62
2022/11/23 02:03:06;;;;;;;67.55;26.23;;;-0.40;99.90;;;;;;4398177;28;660475;-65
2022/11/23 02:05:58;;;;;;;65.40;25.97;;;-0.40;99.90;;;;;;4416015;28;661147;-63
2022/11/23 02:08:47;;;;;;;66.93;25.93;;;-0.40;99.90;;;;;;4379082;28;660973;-65
2022/11/23 02:11:34;;;;;;;61.60;25.43;;;-0.40;99.90;;;;;;4411867;28;661169;-63
2022/11/23 02:14:21;;;;;;;55.40;24.57;;;-0.40;99.90;;;;;;4392797;28;660851;-63
2022/11/23 02:17:08;;;;;;;66.50;25.63;;;-0.40;99.90;;;;;;4414739;28;662083;-62
2022/11/23 02:19:57;;;;;;;63.45;24.45;;;-0.40;99.90;;;;;;4398313;28;660189;-64
2022/11/23 02:22:51;;;;;;;58.70;23.93;;;-0.40;99.90;;;;;;4407779;28;661489;-64
2022/11/23 02:25:42;;;;;;;58.30;24.00;;;-0.40;99.90;;;;;;4388424;28;661120;-62
2022/11/23 02:28:33;;;;;;;62.00;25.40;;;-0.30;99.90;;;;;;4385377;28;660870;-64
2022/11/23 02:31:20;;;;;;;66.07;27.50;;;-0.30;99.90;;;;;;4391559;28;660722;-63
2022/11/23 02:34:07;;;;;;;64.03;25.97;;;-0.30;99.90;;;;;;4406076;28;662360;-63
2022/11/23 02:36:56;;;;;;;66.70;26.87;;;-0.30;99.90;;;;;;4408115;28;662128;-64
2022/11/23 02:39:44;;;;;;;62.50;26.17;;;-0.30;99.90;;;;;;4412407;28;661638;-62
2022/11/23 02:42:31;;;;;;;64.20;26.10;;;-0.30;99.90;;;;;;4388885;28;660795;-63
2022/11/23 02:45:24;;;;;;;67.73;27.17;;;-0.30;99.90;;;;;;4394893;28;661474;-63
2022/11/23 02:48:12;;;;;;;64.57;26.60;;;-0.30;99.90;;;;;;4367150;28;661275;-63
2022/11/23 02:50:59;;;;;;;63.27;25.93;;;-0.30;99.90;;;;;;4394683;28;661593;-62
2022/11/23 02:53:46;;;;;;;68.17;26.27;;;-0.20;99.90;;;;;;4375856;28;660742;-63
2022/11/23 02:56:33;;;;;;;57.47;23.10;;;-0.20;99.90;;;;;;4398428;28;660452;-63
2022/11/23 02:59:20;;;;;;;64.43;23.40;;;-0.20;99.90;;;;;;4381841;28;660809;-64
2022/11/23 03:02:09;;;;;;;69.43;26.90;;;-0.10;99.90;;;;;;4847127;28;662558;-63
2022/11/23 03:04:56;;;;;;;66.43;24.53;;;-0.10;99.90;;;;;;4375813;28;660883;-64
2022/11/23 03:07:43;;;;;;;61.27;23.63;;;-0.10;99.90;;;;;;4398594;28;661676;-63
2022/11/23 03:10:30;;;;;;;54.22;22.92;;;-0.10;99.90;;;;;;4378596;28;661200;-64
2022/11/23 03:13:17;;;;;;;56.10;23.73;;;0.00;99.90;;;;;;4398574;28;661264;-62
2022/11/23 03:16:05;;;;;;;51.47;22.60;;;0.00;99.90;;;;;;4395634;28;659955;-62
2022/11/23 03:18:53;;;;;;;55.00;22.50;;;0.00;99.90;;;;;;4372649;28;660740;-62
2022/11/23 03:21:40;;;;;;;60.67;23.13;;;0.00;99.90;;;;;;4376553;28;659713;-63
2022/11/23 03:24:27;;;;;;;62.97;24.20;;;-0.10;99.90;;;;;;4394992;28;660762;-62
2022/11/23 03:27:15;;;;;;;62.07;26.27;;;-0.10;99.90;;;;;;4391693;28;660747;-64
2022/11/23 03:30:02;;;;;;;56.72;23.13;;;0.00;99.90;;;;;;4398342;28;661252;-63
2022/11/23 03:32:49;;;;;;;63.97;23.53;;;-0.10;99.90;;;;;;4395098;28;660269;-62
2022/11/23 03:35:38;;;;;;;58.90;24.20;;;-0.10;99.90;;;;;;4375160;28;660938;-62
2022/11/23 03:38:25;;;;;;;60.83;24.37;;;0.00;99.90;;;;;;4381735;28;660720;-64
2022/11/23 03:41:12;;;;;;;49.93;21.90;;;0.00;99.90;;;;;;4395111;28;661325;-62
2022/11/23 03:43:59;;;;;;;48.30;21.40;;;0.10;99.90;;;;;;4409834;28;659381;-62
2022/11/23 03:46:49;;;;;;;56.83;22.73;;;0.10;99.90;;;;;;4389597;28;661787;-62
2022/11/23 03:49:36;;;;;;;52.60;21.47;;;0.10;99.90;;;;;;4391555;28;659601;-62
2022/11/23 03:52:25;;;;;;;49.53;21.93;;;0.10;99.90;;;;;;4410832;28;660667;-62
2022/11/23 03:55:12;;;;;;;52.67;21.47;;;0.10;99.90;;;;;;4388188;28;660971;-62
2022/11/23 03:58:00;;;;;;;48.37;21.33;;;0.10;99.90;;;;;;4410275;28;659679;-63
2022/11/23 04:00:47;;;;;;;49.03;20.93;;;0.10;99.90;;;;;;4412437;28;661038;-62
2022/11/23 04:03:34;;;;;;;48.93;19.63;;;0.10;99.90;;;;;;4412104;28;660076;-62
2022/11/23 04:06:21;;;;;;;50.93;20.63;;;0.10;99.90;;;;;;4393102;28;659819;-62
2022/11/23 04:09:11;;;;;;;51.93;20.80;;;0.10;99.90;;;;;;4412377;28;659572;-62
2022/11/23 04:11:59;;;;;;;49.47;20.00;;;0.00;99.90;;;;;;4389117;28;659695;-62
2022/11/23 04:14:46;;;;;;;59.43;20.73;;;0.10;99.90;;;;;;4393104;28;660476;-63
2022/11/23 04:17:33;;;;;;;49.53;20.70;;;0.10;99.90;;;;;;4416441;28;660146;-62
2022/11/23 04:20:20;;;;;;;46.13;19.47;;;0.10;99.90;;;;;;4399812;28;659637;-65
2022/11/23 04:23:07;;;;;;;48.90;21.50;;;0.00;99.90;;;;;;4416240;28;661328;-63
2022/11/23 04:25:56;;;;;;;50.63;20.40;;;0.10;99.90;;;;;;4412039;28;660742;-62
2022/11/23 04:28:43;;;;;;;51.10;21.77;;;0.00;99.90;;;;;;4389176;28;660527;-62
2022/11/23 04:31:30;;;;;;;57.93;23.83;;;0.00;99.90;;;;;;4402575;28;661235;-64
2022/11/23 04:34:17;;;;;;;62.15;26.13;;;0.00;99.90;;;;;;4415462;28;660904;-62
2022/11/23 04:37:04;;;;;;;59.37;25.27;;;-0.10;99.90;;;;;;4411749;28;659394;-62
2022/11/23 04:39:51;;;;;;;65.93;25.70;;;-0.20;99.90;;;;;;4387741;28;660992;-62
2022/11/23 04:42:40;;;;;;;65.77;25.03;;;-0.30;99.90;;;;;;4410141;28;660983;-62
2022/11/23 04:45:27;;;;;;;64.73;25.40;;;-0.30;99.90;;;;;;4387088;28;662448;-63
2022/11/23 04:48:14;;;;;;;58.77;24.27;;;-0.40;99.90;;;;;;4409936;28;660951;-62
2022/11/23 04:51:01;;;;;;;62.37;25.03;;;-0.50;99.90;;;;;;4391586;28;660555;-63
2022/11/23 04:53:48;;;;;;;66.33;24.73;;;-0.50;99.90;;;;;;4410390;28;661947;-62
2022/11/23 04:56:35;;;;;;;59.90;23.83;;;-0.70;99.90;;;;;;4391340;28;660628;-62
2022/11/23 04:59:24;;;;;;;60.53;24.00;;;-0.80;99.90;;;;;;4410298;28;661810;-62
2022/11/23 05:02:11;;;;;;;60.13;23.97;;;-0.70;99.90;;;;;;4846622;28;660821;-62
2022/11/23 05:04:58;;;;;;;60.70;24.10;;;-0.70;99.90;;;;;;4417683;28;661649;-62
2022/11/23 05:07:45;;;;;;;61.33;23.60;;;-0.70;99.90;;;;;;4397148;28;660967;-63
2022/11/23 05:10:32;;;;;;;58.60;22.88;;;-0.70;99.90;;;;;;4417886;28;661784;-62
2022/11/23 05:13:19;;;;;;;59.60;22.20;;;-0.70;99.90;;;;;;4413617;28;660720;-62
2022/11/23 05:16:08;;;;;;;63.27;25.03;;;-0.70;99.90;;;;;;4394697;28;660669;-62
2022/11/23 05:18:55;;;;;;;63.83;26.17;;;-0.80;99.90;;;;;;4397238;28;660842;-64
2022/11/23 05:21:42;;;;;;;66.10;27.00;;;-0.70;99.90;;;;;;4417181;28;660532;-62
2022/11/23 05:24:29;;;;;;;65.20;24.60;;;-0.70;99.90;;;;;;4413607;28;661145;-62
2022/11/23 05:27:16;;;;;;;52.73;21.50;;;-0.50;99.90;;;;;;4390982;28;661143;-62
2022/11/23 05:30:04;;;;;;;57.90;23.30;;;-0.60;99.90;;;;;;4413369;28;661203;-62
2022/11/23 05:32:53;;;;;;;54.73;22.47;;;-0.70;99.90;;;;;;4390453;28;660389;-62
2022/11/23 05:35:40;;;;;;;49.70;20.07;;;-0.70;99.90;;;;;;4403505;28;660707;-64
2022/11/23 05:38:27;;;;;;;49.50;20.70;;;-0.60;99.90;;;;;;4417410;28;662318;-63
2022/11/23 05:41:14;;;;;;;47.77;20.00;;;-0.50;99.90;;;;;;4413325;28;661454;-62
2022/11/23 05:44:01;;;;;;;46.77;20.27;;;-0.50;99.90;;;;;;4394353;28;660605;-62
2022/11/23 05:46:48;;;;;;;44.13;18.43;;;-0.50;99.90;;;;;;4413329;28;661038;-63
2022/11/23 05:49:37;;;;;;;46.20;19.27;;;-0.40;99.90;;;;;;4394391;28;660461;-64
2022/11/23 05:52:24;;;;;;;43.50;19.40;;;-0.40;99.90;;;;;;4413049;28;661438;-63
2022/11/23 05:55:12;;;;;;;48.40;19.83;;;-0.40;99.90;;;;;;4393344;28;662334;-62
2022/11/23 05:57:59;;;;;;;47.87;21.33;;;-0.30;99.90;;;;;;4408769;28;661202;-62
2022/11/23 06:00:46;;;;;;;54.00;22.80;;;-0.30;99.90;;;;;;4392708;28;660983;-63
2022/11/23 06:03:33;;;;;;;58.30;23.60;;;-0.30;99.90;;;;;;4414543;28;661395;-62
2022/11/23 06:06:21;;;;;;;54.77;21.53;;;-0.20;99.90;;;;;;4398333;28;660868;-64
2022/11/23 06:09:08;;;;;;;50.13;20.90;;;-0.20;99.90;;;;;;4412912;28;660784;-62
2022/11/23 06:11:56;;;;;;;62.00;22.00;;;-0.20;99.90;;;;;;4386497;28;660963;-63
2022/11/23 06:14:43;;;;;;;52.60;21.43;;;-0.10;99.90;;;;;;4417006;28;661697;-62
2022/11/23 06:17:30;;;;;;;57.37;24.00;;;-0.10;99.90;;;;;;4403786;28;661150;-64
2022/11/23 06:20:17;;;;;;;61.78;24.08;;;0.10;99.90;;;;;;4416621;28;661114;-63
2022/11/23 06:23:06;;;;;;;64.53;24.70;;;0.00;99.90;;;;;;4413752;28;659543;-62
2022/11/23 06:25:53;;;;;;;56.17;22.23;;;0.00;99.90;;;;;;4390594;28;660181;-62
2022/11/23 06:28:40;;;;;;;60.75;24.45;;;0.00;99.90;;;;;;4399563;28;659384;-64
2022/11/23 06:31:27;;;;;;;58.67;24.00;;;0.00;99.90;;;;;;4417861;28;661079;-63
2022/11/23 06:34:14;;;;;;;63.10;25.07;;;0.00;99.90;;;;;;4413529;28;660446;-63
2022/11/23 06:37:01;;;;;;;62.03;24.47;;;0.00;99.90;;;;;;4394778;28;659862;-63
2022/11/23 06:39:50;;;;;;;61.13;24.23;;;0.00;99.90;;;;;;4413569;28;660527;-62
2022/11/23 06:42:37;;;;;;;77.13;30.73;;;0.00;99.90;;;;;;4390667;28;660776;-63
2022/11/23 06:45:24;;;;;;;68.57;26.90;;;0.10;99.90;;;;;;4413327;28;659687;-63
2022/11/23 06:48:11;;;;;;;65.07;26.57;;;0.10;99.90;;;;;;4388794;28;660938;-63
2022/11/23 06:50:58;;;;;;;64.10;25.47;;;0.10;99.90;;;;;;4412280;28;660528;-62
2022/11/23 06:53:45;;;;;;;65.80;25.80;;;0.20;99.90;;;;;;4393475;28;659870;-64
2022/11/23 06:56:34;;;;;;;59.80;24.53;;;0.10;99.90;;;;;;4412125;28;661199;-64
2022/11/23 06:59:21;;;;;;;63.77;24.87;;;0.20;99.90;;;;;;4389728;28;660122;-63
2022/11/23 07:02:09;;;;;;;74.65;28.73;;;0.20;99.90;;;;;;4866733;28;661011;-63
2022/11/23 07:04:56;;;;;;;59.97;25.27;;;0.20;99.90;;;;;;4394338;28;659722;-62
2022/11/23 07:07:43;;;;;;;60.30;25.13;;;0.20;99.90;;;;;;4412792;28;661132;-62
2022/11/23 07:10:31;;;;;;;57.93;24.83;;;0.30;99.90;;;;;;4393786;28;659843;-64
2022/11/23 07:13:20;;;;;;;57.93;24.03;;;0.30;99.90;;;;;;4413094;28;660419;-62
2022/11/23 07:16:08;;;;;;;55.93;23.83;;;0.30;99.90;;;;;;4389919;28;660855;-62
2022/11/23 07:18:55;;;;;;;63.77;25.47;;;0.20;99.90;;;;;;4393661;28;659759;-64
2022/11/23 07:21:42;;;;;;;65.97;23.93;;;0.20;99.90;;;;;;4417138;28;659508;-62
2022/11/23 07:24:29;;;;;;;58.93;23.00;;;0.20;99.90;;;;;;4412377;28;659533;-63
2022/11/23 07:27:17;;;;;;;58.07;24.23;;;0.20;99.90;;;;;;4393927;28;659657;-62
2022/11/23 07:30:07;;;;;;;59.07;23.13;;;0.20;99.90;;;;;;4406308;28;660259;-62
2022/11/23 07:32:54;;;;;;;52.13;21.43;;;0.30;99.90;;;;;;4389696;28;660585;-63
2022/11/23 07:35:41;;;;;;;57.80;23.37;;;0.20;99.90;;;;;;4393514;28;660112;-64
2022/11/23 07:38:28;;;;;;;55.87;22.93;;;0.30;99.90;;;;;;4412691;28;659933;-63
2022/11/23 07:41:15;;;;;;;59.43;22.97;;;0.40;99.90;;;;;;4393471;28;659754;-64
2022/11/23 07:44:02;;;;;;;76.53;28.93;;;0.40;99.90;;;;;;4416562;28;660200;-62
2022/11/23 07:46:52;;;;;;;54.03;23.17;;;0.50;99.90;;;;;;4412626;28;659651;-62
2022/11/23 07:49:39;;;;;;;50.53;21.03;;;0.40;99.90;;;;;;4388568;28;659918;-62
2022/11/23 07:52:26;;;;;;;55.63;23.80;;;0.50;99.90;;;;;;4390880;28;659874;-62
2022/11/23 07:55:13;;;;;;;61.87;25.60;;;0.60;99.90;;;;;;4406549;28;660559;-63
2022/11/23 07:58:00;;;;;;;61.43;25.67;;;0.70;99.90;;;;;;4386268;28;659747;-63
2022/11/23 08:00:47;;;;;;;61.90;24.77;;;0.70;99.90;;;;;;4411338;28;661605;-63
2022/11/23 08:03:36;;;;;;;59.13;23.80;;;0.70;99.90;;;;;;4410223;28;660312;-64
2022/11/23 08:06:23;;;;;;;58.73;24.37;;;0.80;99.90;;;;;;4411226;28;660368;-63
2022/11/23 08:09:11;;;;;;;66.70;23.87;;;0.90;99.90;;;;;;4392409;28;659857;-63
2022/11/23 08:11:58;;;;;;;54.93;22.00;;;1.00;99.90;;;;;;4404823;28;660585;-62
2022/11/23 08:14:45;;;;;;;60.47;21.73;;;1.10;99.90;;;;;;4401059;28;660575;-63
2022/11/23 08:17:32;;;;;;;61.42;21.70;;;1.10;99.90;;;;;;4415297;28;659300;-63
2022/11/23 08:20:21;;;;;;;57.17;21.37;;;1.20;99.90;;;;;;4411062;28;659608;-62
2022/11/23 08:23:08;;;;;;;71.83;21.63;;;1.20;99.90;;;;;;4388366;28;659968;-63
2022/11/23 08:25:55;;;;;;;42.53;16.60;;;1.30;99.90;;;;;;4400749;28;660163;-64
2022/11/23 08:28:42;;;;;;;51.80;18.08;;;1.40;99.90;;;;;;4415066;28;660715;-63
2022/11/23 08:31:29;;;;;;;36.80;14.63;;;1.40;99.90;;;;;;4410871;28;659716;-63
2022/11/23 08:34:17;;;;;;;30.87;14.10;;;1.50;99.90;;;;;;4387911;28;659913;-63
2022/11/23 08:37:05;;;;;;;30.90;12.77;;;1.50;99.90;;;;;;4410887;28;659676;-63
2022/11/23 08:39:53;;;;;;;24.60;11.87;;;1.60;99.90;;;;;;4388331;28;660782;-63
2022/11/23 08:42:40;;;;;;;38.63;14.67;;;1.60;99.90;;;;;;4405469;28;659665;-64
2022/11/23 08:45:27;;;;;;;24.35;10.48;;;1.50;99.90;;;;;;4415464;28;660004;-63
2022/11/23 08:48:14;;;;;;;24.70;10.93;;;1.60;99.90;;;;;;4411704;28;660621;-63
2022/11/23 08:51:01;;;;;;;43.27;13.77;;;1.60;99.90;;;;;;4392869;28;659656;-63
2022/11/23 08:53:50;;;;;;;33.00;11.83;;;1.60;99.90;;;;;;4411751;28;660436;-63
2022/11/23 08:56:37;;;;;;;23.60;10.97;;;1.60;99.90;;;;;;4388734;28;661161;-63
2022/11/23 08:59:24;;;;;;;33.73;11.70;;;1.60;99.90;;;;;;4411640;28;660015;-62
2022/11/23 09:02:12;;;;;;;27.97;11.33;;;1.70;99.90;;;;;;4846128;28;659721;-63
2022/11/23 09:04:59;;;;;;;35.00;13.03;;;1.80;99.90;;;;;;4411618;28;660658;-62
2022/11/23 09:07:46;;;;;;;33.73;12.90;;;1.70;99.90;;;;;;4390878;28;659649;-63
2022/11/23 09:10:35;;;;;;;25.23;11.20;;;1.70;99.90;;;;;;4411716;28;659950;-62
2022/11/23 09:13:22;;;;;;;28.47;11.63;;;1.70;99.90;;;;;;4389075;28;661755;-62
2022/11/23 09:16:09;;;;;;;31.40;12.50;;;1.80;99.90;;;;;;4410181;28;659961;-63
2022/11/23 09:18:57;;;;;;;26.77;12.30;;;1.80;99.90;;;;;;4392747;28;661436;-62
2022/11/23 09:21:44;;;;;;;28.40;12.90;;;1.80;99.90;;;;;;4410809;28;659901;-63
2022/11/23 09:24:31;;;;;;;27.53;13.17;;;1.80;99.90;;;;;;4392704;28;659546;-63
2022/11/23 09:27:19;;;;;;;64.77;19.80;;;1.90;99.90;;;;;;4411687;28;661474;-63
2022/11/23 09:30:08;;;;;;;36.10;13.13;;;1.90;99.90;;;;;;4392778;28;659809;-63
2022/11/23 09:32:56;;;;;;;33.23;14.37;;;1.90;99.90;;;;;;4399799;28;659641;-64
2022/11/23 09:35:43;;;;;;;35.07;15.23;;;1.90;99.90;;;;;;4415472;28;659998;-62
2022/11/23 09:38:30;;;;;;;39.27;16.20;;;1.80;99.90;;;;;;4402295;28;659591;-64
2022/11/23 09:41:27;;;;;;;34.60;16.37;;;1.80;99.90;;;;;;4415136;28;661214;-62
2022/11/23 09:44:18;;;;;;;40.63;14.68;;;2.00;99.90;;;;;;4388099;28;659700;-63
2022/11/23 09:47:14;;;;;;;36.80;13.67;;;2.00;99.90;;;;;;4370261;28;660515;-64
2022/11/23 09:50:03;;;;;;;37.70;12.60;;;2.00;99.90;;;;;;4372612;28;660413;-63
2022/11/23 09:52:50;;;;;;;38.13;13.30;;;1.90;99.90;;;;;;4395379;28;659747;-63
2022/11/23 09:55:39;;;;;;;34.50;13.10;;;2.00;99.90;;;;;;4413410;28;661722;-63
2022/11/23 09:58:29;;;;;;;41.27;13.90;;;1.90;99.90;;;;;;4388901;28;659733;-62
2022/11/23 10:01:18;;;;;;;43.60;13.83;;;1.90;99.90;;;;;;4395383;28;661090;-63
2022/11/23 10:04:05;;;;;;;25.13;11.60;;;2.00;99.90;;;;;;4395024;28;659766;-63
2022/11/23 10:06:54;;;;;;;30.67;13.43;;;2.00;99.90;;;;;;4414329;28;661271;-63
2022/11/23 10:09:45;;;;;;;42.27;13.53;;;1.90;99.90;;;;;;4393812;28;660171;-63
2022/11/23 10:12:39;;;;;;;42.50;15.83;;;1.90;99.90;;;;;;4390142;28;661412;-63
2022/11/23 10:15:27;;;;;;;45.50;17.53;;;1.90;99.90;;;;;;4368307;28;660224;-63
2022/11/23 10:18:29;;;;;;;37.37;15.20;;;1.90;99.90;;;;;;4407854;28;659886;-64
2022/11/23 10:21:19;;;;;;;34.70;13.57;;;1.90;99.90;;;;;;4395200;28;659542;-62
2022/11/23 10:24:13;;;;;;;31.63;13.70;;;1.80;99.90;;;;;;4391660;28;659879;-63
2022/11/23 10:27:00;;;;;;;28.98;13.52;;;1.90;99.90;;;;;;4369040;28;659729;-63
2022/11/23 10:29:48;;;;;;;35.40;14.50;;;1.80;99.90;;;;;;4414179;28;660492;-63
2022/11/23 10:32:37;;;;;;;30.87;14.27;;;1.80;99.90;;;;;;4399133;28;659514;-64
2022/11/23 10:35:27;;;;;;;27.30;12.70;;;1.70;99.90;;;;;;4412244;28;660546;-63
2022/11/23 10:38:15;;;;;;;31.23;13.95;;;1.70;99.90;;;;;;4390905;28;659343;-63
2022/11/23 10:41:03;;;;;;;36.23;15.10;;;1.80;99.90;;;;;;4390867;28;661438;-63
2022/11/23 10:43:52;;;;;;;30.33;14.83;;;1.70;99.90;;;;;;4404962;28;659932;-65
2022/11/23 10:46:40;;;;;;;38.40;16.23;;;1.70;99.90;;;;;;4413497;28;659725;-62
2022/11/23 10:49:28;;;;;;;36.93;17.47;;;1.80;99.90;;;;;;4394374;28;661342;-63
2022/11/23 10:52:28;;;;;;;36.70;15.43;;;1.80;99.90;;;;;;4388955;28;659512;-64
2022/11/23 10:55:15;;;;;;;111.57;17.50;;;1.70;99.90;;;;;;4370509;28;659246;-63
2022/11/23 10:58:03;;;;;;;48.77;19.93;;;1.80;99.90;;;;;;4411179;28;661781;-63
2022/11/23 11:00:52;;;;;;;49.40;19.47;;;1.80;99.90;;;;;;4563971;28;659860;-63
2022/11/23 11:03:40;;;;;;;35.53;16.03;;;1.80;99.90;;;;;;4711965;28;536402;-65
2022/11/23 11:06:28;;;;;;;35.17;15.00;;;1.90;99.90;;;;;;4416376;28;661310;-63
2022/11/23 11:09:20;;;;;;;34.67;13.23;;;1.90;99.90;;;;;;4393274;28;659710;-63
2022/11/23 11:12:14;;;;;;;30.93;13.53;;;2.10;99.90;;;;;;4393709;28;660496;-63
2022/11/23 11:15:04;;;;;;;33.70;15.30;;;2.00;99.90;;;;;;4370706;28;660417;-63
2022/11/23 11:17:54;;;;;;;34.23;15.57;;;2.10;99.90;;;;;;4391962;28;659879;-63
2022/11/23 11:20:42;;;;;;;31.77;13.87;;;2.00;99.90;;;;;;4392993;28;659591;-63
2022/11/23 11:23:29;;;;;;;30.17;14.03;;;2.00;99.90;;;;;;4412118;28;660713;-63
2022/11/23 11:26:19;;;;;;;34.58;16.23;;;1.90;99.90;;;;;;4393193;28;659733;-63
2022/11/23 11:29:08;;;;;;;37.80;16.27;;;1.80;99.90;;;;;;4392976;28;659643;-63
2022/11/23 11:31:57;;;;;;;33.17;13.97;;;1.80;99.90;;;;;;4392625;28;660603;-64
2022/11/23 11:34:45;;;;;;;34.43;14.90;;;1.80;99.90;;;;;;4411551;28;659639;-63
2022/11/23 11:37:34;;;;;;;40.55;15.82;;;1.80;99.90;;;;;;4385578;28;661121;-63
2022/11/23 11:40:23;;;;;;;39.17;15.60;;;1.80;99.90;;;;;;4392766;28;659700;-64
2022/11/23 11:43:13;;;;;;;34.97;14.87;;;1.90;99.90;;;;;;4391370;28;660201;-64
2022/11/23 11:46:02;;;;;;;39.90;17.17;;;1.80;99.90;;;;;;4393087;28;659984;-64
2022/11/23 11:48:51;;;;;;;33.87;15.87;;;1.80;99.90;;;;;;4412377;28;659417;-63
2022/11/23 11:51:39;;;;;;;42.47;15.17;;;1.70;99.90;;;;;;4389662;28;660035;-62
2022/11/23 11:54:29;;;;;;;37.67;16.17;;;1.60;99.90;;;;;;4392780;28;659530;-63
2022/11/23 11:57:17;;;;;;;43.63;17.67;;;1.60;99.90;;;;;;4393364;28;659877;-64
2022/11/23 12:00:10;;;;;;;39.63;16.67;;;1.50;99.90;;;;;;4405690;28;659800;-64
2022/11/23 12:03:04;;;;;;;52.03;19.33;;;1.50;99.90;;;;;;4388863;28;661085;-63
2022/11/23 12:05:52;;;;;;;39.67;17.13;;;1.50;99.90;;;;;;4370504;28;660433;-63
2022/11/23 12:08:43;;;;;;;44.07;16.97;;;1.40;99.90;;;;;;4412339;28;660686;-63
2022/11/23 12:11:30;;;;;;;40.30;17.50;;;1.30;99.90;;;;;;4370216;28;659861;-64
2022/11/23 12:14:17;;;;;;;49.07;19.33;;;1.40;99.90;;;;;;4412303;28;661308;-63
2022/11/23 12:17:08;;;;;;;45.93;18.00;;;1.30;99.90;;;;;;4412522;28;660092;-63
2022/11/23 12:19:57;;;;;;;43.60;18.40;;;1.30;99.90;;;;;;4365697;28;660280;-65
2022/11/23 12:22:49;;;;;;;50.53;19.63;;;1.30;99.90;;;;;;4411918;28;660517;-62
2022/11/23 12:25:37;;;;;;;54.50;21.73;;;1.30;99.90;;;;;;4366458;28;661365;-63
2022/11/23 12:28:37;;;;;;;52.90;20.50;;;1.30;99.90;;;;;;4412077;28;659530;-63
2022/11/23 12:31:29;;;;;;;37.60;15.37;;;1.20;99.90;;;;;;4388924;28;659484;-63
2022/11/23 12:34:28;;;;;;;42.70;17.90;;;1.20;99.90;;;;;;4385807;28;660322;-63
2022/11/23 12:37:22;;;;;;;45.20;18.93;;;1.20;99.90;;;;;;4370078;28;659678;-64
2022/11/23 12:40:29;;;;;;;40.00;16.87;;;1.30;99.90;;;;;;4388407;28;660189;-63
2022/11/23 12:43:20;;;;;;;43.60;15.77;;;1.20;99.90;;;;;;4385314;28;660127;-63
2022/11/23 12:46:11;;;;;;;46.85;16.58;;;1.20;99.90;;;;;;4392938;28;661233;-63
2022/11/23 12:49:08;;;;;;;44.10;17.30;;;1.20;99.90;;;;;;4388837;28;660352;-63
2022/11/23 12:52:02;;;;;;;41.53;17.50;;;1.10;99.90;;;;;;4372088;28;660100;-65
2022/11/23 12:54:54;;;;;;;43.07;17.70;;;1.10;99.90;;;;;;4388395;28;660565;-63
2022/11/23 12:57:43;;;;;;;46.70;18.70;;;1.10;99.90;;;;;;4365940;28;661275;-64
2022/11/23 13:00:33;;;;;;;47.57;22.00;;;1.10;99.90;;;;;;4487273;28;659372;-63
2022/11/23 13:03:46;;;;;;;48.83;20.52;;;1.10;99.90;;;;;;4780468;28;537218;-64
2022/11/23 13:06:57;;;;;;;55.37;21.33;;;1.10;99.90;;;;;;4386401;28;660309;-63
2022/11/23 13:10:11;;;;;;;55.07;21.97;;;1.10;99.90;;;;;;4388600;28;660871;-63
2022/11/23 13:13:15;;;;;;;40.47;16.47;;;1.10;99.90;;;;;;4388765;28;659501;-62
2022/11/23 13:16:21;;;;;;;46.87;18.27;;;1.00;99.90;;;;;;4365397;28;660179;-63
2022/11/23 13:19:16;;;;;;;44.57;18.57;;;1.00;99.90;;;;;;4388344;28;660783;-63
2022/11/23 13:22:06;;;;;;;49.83;20.53;;;1.00;99.90;;;;;;4389452;28;660620;-63
2022/11/23 13:25:02;;;;;;;42.50;16.90;;;0.90;99.90;;;;;;4384625;28;661438;-63
2022/11/23 13:28:01;;;;;;;44.08;17.88;;;0.90;99.90;;;;;;4388617;28;659448;-65
2022/11/23 13:30:48;;;;;;;55.47;19.93;;;0.80;99.90;;;;;;4391779;28;660438;-63
2022/11/23 13:33:37;;;;;;;47.80;17.93;;;0.80;99.90;;;;;;4395957;28;660051;-65
2022/11/23 13:36:42;;;;;;;50.37;18.20;;;0.80;99.90;;;;;;4414551;28;660500;-63
2022/11/23 13:40:06;;;;;;;54.30;18.63;;;0.70;99.90;;;;;;4386047;28;660168;-64
2022/11/23 13:42:57;;;;;;;47.30;18.73;;;0.70;99.90;;;;;;4388869;28;659736;-63
2022/11/23 13:45:44;;;;;;;54.85;20.73;;;0.70;99.90;;;;;;4391411;28;659893;-63
2022/11/23 13:48:31;;;;;;;52.60;19.10;;;0.70;99.90;;;;;;4394283;28;659382;-63
2022/11/23 13:51:26;;;;;;;46.93;19.17;;;0.70;99.90;;;;;;4414616;28;659567;-63
2022/11/23 13:54:19;;;;;;;50.17;19.53;;;0.70;99.90;;;;;;4385206;28;660396;-63
2022/11/23 13:57:11;;;;;;;43.70;18.70;;;0.70;99.90;;;;;;4367622;28;661016;-62
2022/11/23 14:00:46;;;;;;;50.37;19.17;;;0.70;99.90;;;;;;4390243;28;660522;-63
2022/11/23 14:03:54;;;;;;;52.93;20.87;;;0.70;99.90;;;;;;4304184;29;660373;-63
2022/11/23 14:06:45;;;;;;;54.93;20.33;;;0.70;99.90;;;;;;4367252;28;660256;-62
2022/11/23 14:09:35;;;;;;;55.15;21.25;;;0.60;99.90;;;;;;4394568;28;660444;-62
2022/11/23 14:12:25;;;;;;;76.33;27.97;;;0.70;99.90;;;;;;4390406;28;662415;-63